sensor_id;sensor_type;location;lat;lon;timestamp;P1;durP1;ratioP1;P2;durP2;ratioP2
29500;SDS011;16450;50.288;10.966;2023-12-04T00:02:25;30.17;;;15.10;;
29500;SDS011;16450;50.288;10.966;2023-12-04T00:05:27;32.87;;;15.50;;
29500;SDS011;16450;50.288;10.966;2023-12-04T00:08:29;31.67;;;15.50;;
29500;SDS011;16450;50.288;10.966;2023-12-04T00:11:30;32.67;;;15.67;;
29500;SDS011;16450;50.288;10.966;2023-12-04T00:14:33;30.83;;;15.43;;
29500;SDS011;16450;50.288;10.966;2023-12-04T00:17:35;31.20;;;15.67;;
29500;SDS011;16450;50.288;10.966;2023-12-04T00:20:41;33.13;;;15.73;;
29500;SDS011;16450;50.288;10.966;2023-12-04T00:23:43;33.43;;;15.47;;
29500;SDS011;16450;50.288;10.966;2023-12-04T00:26:45;32.50;;;14.93;;
29500;SDS011;16450;50.288;10.966;2023-12-04T00:29:47;33.63;;;16.10;;
29500;SDS011;16450;50.288;10.966;2023-12-04T00:32:49;30.40;;;15.50;;
29500;SDS011;16450;50.288;10.966;2023-12-04T00:35:50;33.00;;;16.23;;
29500;SDS011;16450;50.288;10.966;2023-12-04T00:38:52;35.20;;;15.63;;
29500;SDS011;16450;50.288;10.966;2023-12-04T00:41:54;31.53;;;15.90;;
29500;SDS011;16450;50.288;10.966;2023-12-04T00:44:56;33.17;;;15.47;;
29500;SDS011;16450;50.288;10.966;2023-12-04T00:47:58;33.70;;;15.60;;
29500;SDS011;16450;50.288;10.966;2023-12-04T00:51:00;34.57;;;16.37;;
29500;SDS011;16450;50.288;10.966;2023-12-04T00:54:02;34.13;;;15.27;;
29500;SDS011;16450;50.288;10.966;2023-12-04T00:57:04;32.57;;;15.53;;
29500;SDS011;16450;50.288;10.966;2023-12-04T01:00:06;30.37;;;15.10;;
29500;SDS011;16450;50.288;10.966;2023-12-04T01:03:08;33.40;;;15.40;;
29500;SDS011;16450;50.288;10.966;2023-12-04T01:06:19;33.80;;;15.73;;
29500;SDS011;16450;50.288;10.966;2023-12-04T01:09:23;31.83;;;15.30;;
29500;SDS011;16450;50.288;10.966;2023-12-04T01:12:25;32.03;;;15.43;;
29500;SDS011;16450;50.288;10.966;2023-12-04T01:15:27;29.63;;;15.20;;
29500;SDS011;16450;50.288;10.966;2023-12-04T01:18:29;29.10;;;14.70;;
29500;SDS011;16450;50.288;10.966;2023-12-04T01:21:33;32.33;;;15.50;;
29500;SDS011;16450;50.288;10.966;2023-12-04T01:24:34;31.33;;;14.93;;
29500;SDS011;16450;50.288;10.966;2023-12-04T01:27:36;33.53;;;15.07;;
29500;SDS011;16450;50.288;10.966;2023-12-04T01:30:39;26.77;;;13.47;;
29500;SDS011;16450;50.288;10.966;2023-12-04T01:33:41;31.40;;;14.87;;
29500;SDS011;16450;50.288;10.966;2023-12-04T01:36:42;32.27;;;15.00;;
29500;SDS011;16450;50.288;10.966;2023-12-04T01:39:44;31.30;;;15.33;;
29500;SDS011;16450;50.288;10.966;2023-12-04T01:42:46;30.13;;;14.63;;
29500;SDS011;16450;50.288;10.966;2023-12-04T01:45:48;30.73;;;14.23;;
29500;SDS011;16450;50.288;10.966;2023-12-04T01:48:51;27.73;;;14.97;;
29500;SDS011;16450;50.288;10.966;2023-12-04T01:51:54;32.77;;;15.33;;
29500;SDS011;16450;50.288;10.966;2023-12-04T01:54:56;29.93;;;14.27;;
29500;SDS011;16450;50.288;10.966;2023-12-04T01:57:58;33.67;;;15.27;;
29500;SDS011;16450;50.288;10.966;2023-12-04T02:01:01;31.47;;;15.50;;
29500;SDS011;16450;50.288;10.966;2023-12-04T02:04:04;33.77;;;13.93;;
29500;SDS011;16450;50.288;10.966;2023-12-04T02:07:06;31.37;;;14.53;;
29500;SDS011;16450;50.288;10.966;2023-12-04T02:10:10;30.03;;;14.63;;
29500;SDS011;16450;50.288;10.966;2023-12-04T02:13:12;29.87;;;14.37;;
29500;SDS011;16450;50.288;10.966;2023-12-04T02:16:14;28.33;;;14.10;;
29500;SDS011;16450;50.288;10.966;2023-12-04T02:19:17;30.90;;;14.33;;
29500;SDS011;16450;50.288;10.966;2023-12-04T02:22:19;31.10;;;13.97;;
29500;SDS011;16450;50.288;10.966;2023-12-04T02:25:21;36.43;;;15.80;;
29500;SDS011;16450;50.288;10.966;2023-12-04T02:28:36;30.73;;;14.30;;
29500;SDS011;16450;50.288;10.966;2023-12-04T02:31:39;32.20;;;15.57;;
29500;SDS011;16450;50.288;10.966;2023-12-04T02:34:42;32.17;;;15.70;;
29500;SDS011;16450;50.288;10.966;2023-12-04T02:37:46;29.00;;;14.63;;
29500;SDS011;16450;50.288;10.966;2023-12-04T02:40:49;29.67;;;14.80;;
29500;SDS011;16450;50.288;10.966;2023-12-04T02:43:51;31.40;;;15.07;;
29500;SDS011;16450;50.288;10.966;2023-12-04T02:46:53;26.57;;;13.53;;
29500;SDS011;16450;50.288;10.966;2023-12-04T02:49:55;27.17;;;14.53;;
29500;SDS011;16450;50.288;10.966;2023-12-04T02:52:57;32.67;;;15.17;;
29500;SDS011;16450;50.288;10.966;2023-12-04T02:55:59;31.00;;;14.47;;
29500;SDS011;16450;50.288;10.966;2023-12-04T02:59:00;27.47;;;13.67;;
29500;SDS011;16450;50.288;10.966;2023-12-04T03:02:02;29.03;;;14.33;;
29500;SDS011;16450;50.288;10.966;2023-12-04T03:05:04;31.37;;;15.07;;
29500;SDS011;16450;50.288;10.966;2023-12-04T03:08:06;29.57;;;14.23;;
29500;SDS011;16450;50.288;10.966;2023-12-04T03:11:08;29.17;;;14.53;;
29500;SDS011;16450;50.288;10.966;2023-12-04T03:14:10;32.00;;;15.30;;
29500;SDS011;16450;50.288;10.966;2023-12-04T03:17:12;31.30;;;14.93;;
29500;SDS011;16450;50.288;10.966;2023-12-04T03:20:14;31.20;;;14.60;;
29500;SDS011;16450;50.288;10.966;2023-12-04T03:23:16;28.97;;;15.07;;
29500;SDS011;16450;50.288;10.966;2023-12-04T03:26:17;29.37;;;14.17;;
29500;SDS011;16450;50.288;10.966;2023-12-04T03:29:19;33.87;;;15.50;;
29500;SDS011;16450;50.288;10.966;2023-12-04T03:32:21;32.67;;;15.43;;
29500;SDS011;16450;50.288;10.966;2023-12-04T03:35:23;29.63;;;14.67;;
29500;SDS011;16450;50.288;10.966;2023-12-04T03:38:25;31.03;;;15.33;;
29500;SDS011;16450;50.288;10.966;2023-12-04T03:41:27;31.70;;;14.53;;
29500;SDS011;16450;50.288;10.966;2023-12-04T03:44:29;32.67;;;15.13;;
29500;SDS011;16450;50.288;10.966;2023-12-04T03:47:31;28.63;;;14.70;;
29500;SDS011;16450;50.288;10.966;2023-12-04T03:50:33;28.33;;;13.97;;
29500;SDS011;16450;50.288;10.966;2023-12-04T03:53:35;32.33;;;15.47;;
29500;SDS011;16450;50.288;10.966;2023-12-04T03:56:36;31.00;;;14.87;;
29500;SDS011;16450;50.288;10.966;2023-12-04T03:59:38;30.33;;;14.97;;
29500;SDS011;16450;50.288;10.966;2023-12-04T04:02:41;30.97;;;14.80;;
29500;SDS011;16450;50.288;10.966;2023-12-04T04:05:44;31.13;;;14.73;;
29500;SDS011;16450;50.288;10.966;2023-12-04T04:08:46;30.90;;;14.93;;
29500;SDS011;16450;50.288;10.966;2023-12-04T04:11:48;30.73;;;14.67;;
29500;SDS011;16450;50.288;10.966;2023-12-04T04:14:50;28.60;;;13.80;;
29500;SDS011;16450;50.288;10.966;2023-12-04T04:17:52;28.87;;;13.27;;
29500;SDS011;16450;50.288;10.966;2023-12-04T04:20:55;29.73;;;14.43;;
29500;SDS011;16450;50.288;10.966;2023-12-04T04:23:57;30.03;;;13.93;;
29500;SDS011;16450;50.288;10.966;2023-12-04T04:27:00;31.23;;;13.77;;
29500;SDS011;16450;50.288;10.966;2023-12-04T04:30:02;27.97;;;13.70;;
29500;SDS011;16450;50.288;10.966;2023-12-04T04:33:04;29.37;;;14.13;;
29500;SDS011;16450;50.288;10.966;2023-12-04T04:36:08;30.57;;;14.20;;
29500;SDS011;16450;50.288;10.966;2023-12-04T04:39:14;29.30;;;13.77;;
29500;SDS011;16450;50.288;10.966;2023-12-04T04:42:16;31.67;;;15.47;;
29500;SDS011;16450;50.288;10.966;2023-12-04T04:45:18;30.53;;;14.57;;
29500;SDS011;16450;50.288;10.966;2023-12-04T04:48:20;27.80;;;14.53;;
29500;SDS011;16450;50.288;10.966;2023-12-04T04:51:22;28.50;;;13.67;;
29500;SDS011;16450;50.288;10.966;2023-12-04T04:54:25;32.30;;;15.00;;
29500;SDS011;16450;50.288;10.966;2023-12-04T04:57:27;28.73;;;13.50;;
29500;SDS011;16450;50.288;10.966;2023-12-04T05:00:29;30.77;;;14.47;;
29500;SDS011;16450;50.288;10.966;2023-12-04T05:03:31;30.97;;;14.90;;
29500;SDS011;16450;50.288;10.966;2023-12-04T05:06:33;29.90;;;14.33;;
29500;SDS011;16450;50.288;10.966;2023-12-04T05:09:35;29.87;;;14.80;;
29500;SDS011;16450;50.288;10.966;2023-12-04T05:12:37;30.10;;;15.03;;
29500;SDS011;16450;50.288;10.966;2023-12-04T05:15:39;34.40;;;15.40;;
29500;SDS011;16450;50.288;10.966;2023-12-04T05:18:40;33.40;;;15.40;;
29500;SDS011;16450;50.288;10.966;2023-12-04T05:21:43;31.20;;;15.90;;
29500;SDS011;16450;50.288;10.966;2023-12-04T05:24:45;31.50;;;14.87;;
29500;SDS011;16450;50.288;10.966;2023-12-04T05:27:46;33.83;;;15.70;;
29500;SDS011;16450;50.288;10.966;2023-12-04T05:30:50;30.77;;;15.00;;
29500;SDS011;16450;50.288;10.966;2023-12-04T05:33:52;30.50;;;14.80;;
29500;SDS011;16450;50.288;10.966;2023-12-04T05:36:54;32.53;;;15.17;;
29500;SDS011;16450;50.288;10.966;2023-12-04T05:39:56;28.33;;;13.33;;
29500;SDS011;16450;50.288;10.966;2023-12-04T05:42:58;28.93;;;13.77;;
29500;SDS011;16450;50.288;10.966;2023-12-04T05:46:00;31.37;;;14.63;;
29500;SDS011;16450;50.288;10.966;2023-12-04T05:49:02;29.63;;;13.97;;
29500;SDS011;16450;50.288;10.966;2023-12-04T05:52:04;30.50;;;15.00;;
29500;SDS011;16450;50.288;10.966;2023-12-04T05:55:06;30.93;;;15.73;;
29500;SDS011;16450;50.288;10.966;2023-12-04T05:58:08;29.77;;;14.10;;
29500;SDS011;16450;50.288;10.966;2023-12-04T06:01:10;28.07;;;14.10;;
29500;SDS011;16450;50.288;10.966;2023-12-04T06:04:12;33.27;;;15.57;;
29500;SDS011;16450;50.288;10.966;2023-12-04T06:07:14;28.63;;;14.20;;
29500;SDS011;16450;50.288;10.966;2023-12-04T06:10:16;25.27;;;14.50;;
29500;SDS011;16450;50.288;10.966;2023-12-04T06:13:18;30.63;;;15.07;;
29500;SDS011;16450;50.288;10.966;2023-12-04T06:16:20;29.70;;;14.50;;
29500;SDS011;16450;50.288;10.966;2023-12-04T06:19:22;30.30;;;14.50;;
29500;SDS011;16450;50.288;10.966;2023-12-04T06:22:24;31.50;;;13.97;;
29500;SDS011;16450;50.288;10.966;2023-12-04T06:25:26;30.60;;;14.80;;
29500;SDS011;16450;50.288;10.966;2023-12-04T06:28:28;35.97;;;15.50;;
29500;SDS011;16450;50.288;10.966;2023-12-04T06:31:30;26.83;;;13.93;;
29500;SDS011;16450;50.288;10.966;2023-12-04T06:34:32;31.60;;;15.17;;
29500;SDS011;16450;50.288;10.966;2023-12-04T06:37:35;30.50;;;13.97;;
29500;SDS011;16450;50.288;10.966;2023-12-04T06:40:40;30.63;;;14.93;;
29500;SDS011;16450;50.288;10.966;2023-12-04T06:43:42;29.47;;;14.10;;
29500;SDS011;16450;50.288;10.966;2023-12-04T06:46:44;29.90;;;13.70;;
29500;SDS011;16450;50.288;10.966;2023-12-04T06:49:51;28.00;;;13.87;;
29500;SDS011;16450;50.288;10.966;2023-12-04T06:52:53;29.33;;;14.23;;
29500;SDS011;16450;50.288;10.966;2023-12-04T06:55:55;27.03;;;13.90;;
29500;SDS011;16450;50.288;10.966;2023-12-04T06:58:57;28.97;;;14.50;;
29500;SDS011;16450;50.288;10.966;2023-12-04T07:01:58;29.07;;;14.67;;
29500;SDS011;16450;50.288;10.966;2023-12-04T07:05:00;33.70;;;15.33;;
29500;SDS011;16450;50.288;10.966;2023-12-04T07:08:04;27.43;;;13.97;;
29500;SDS011;16450;50.288;10.966;2023-12-04T07:11:06;27.73;;;13.50;;
29500;SDS011;16450;50.288;10.966;2023-12-04T07:14:09;29.47;;;13.63;;
29500;SDS011;16450;50.288;10.966;2023-12-04T07:17:11;28.33;;;14.17;;
29500;SDS011;16450;50.288;10.966;2023-12-04T07:20:13;27.70;;;13.90;;
29500;SDS011;16450;50.288;10.966;2023-12-04T07:23:15;30.70;;;15.33;;
29500;SDS011;16450;50.288;10.966;2023-12-04T07:26:17;27.40;;;14.07;;
29500;SDS011;16450;50.288;10.966;2023-12-04T07:29:18;29.50;;;14.00;;
29500;SDS011;16450;50.288;10.966;2023-12-04T07:32:20;30.23;;;15.20;;
29500;SDS011;16450;50.288;10.966;2023-12-04T07:35:22;27.23;;;14.10;;
29500;SDS011;16450;50.288;10.966;2023-12-04T07:38:24;29.20;;;14.27;;
29500;SDS011;16450;50.288;10.966;2023-12-04T07:41:29;31.57;;;15.70;;
29500;SDS011;16450;50.288;10.966;2023-12-04T07:44:31;42.30;;;19.87;;
29500;SDS011;16450;50.288;10.966;2023-12-04T07:47:33;48.63;;;21.60;;
29500;SDS011;16450;50.288;10.966;2023-12-04T07:50:35;38.47;;;18.27;;
29500;SDS011;16450;50.288;10.966;2023-12-04T07:53:39;31.07;;;16.13;;
29500;SDS011;16450;50.288;10.966;2023-12-04T07:56:41;30.90;;;16.23;;
29500;SDS011;16450;50.288;10.966;2023-12-04T07:59:44;32.77;;;16.60;;
29500;SDS011;16450;50.288;10.966;2023-12-04T08:02:48;30.07;;;15.63;;
29500;SDS011;16450;50.288;10.966;2023-12-04T08:05:50;30.30;;;16.57;;
29500;SDS011;16450;50.288;10.966;2023-12-04T08:08:53;34.40;;;17.60;;
29500;SDS011;16450;50.288;10.966;2023-12-04T08:11:55;29.07;;;15.53;;
29500;SDS011;16450;50.288;10.966;2023-12-04T08:14:58;31.10;;;15.80;;
29500;SDS011;16450;50.288;10.966;2023-12-04T08:18:00;30.07;;;16.20;;
29500;SDS011;16450;50.288;10.966;2023-12-04T08:21:02;29.23;;;15.97;;
29500;SDS011;16450;50.288;10.966;2023-12-04T08:24:04;27.67;;;14.20;;
29500;SDS011;16450;50.288;10.966;2023-12-04T08:27:06;28.97;;;14.43;;
29500;SDS011;16450;50.288;10.966;2023-12-04T08:30:09;39.03;;;18.37;;
29500;SDS011;16450;50.288;10.966;2023-12-04T08:33:11;47.57;;;21.63;;
29500;SDS011;16450;50.288;10.966;2023-12-04T08:36:13;31.57;;;16.77;;
29500;SDS011;16450;50.288;10.966;2023-12-04T08:39:15;28.73;;;15.30;;
29500;SDS011;16450;50.288;10.966;2023-12-04T08:42:17;27.60;;;14.33;;
29500;SDS011;16450;50.288;10.966;2023-12-04T08:45:24;27.17;;;13.60;;
29500;SDS011;16450;50.288;10.966;2023-12-04T08:48:26;27.87;;;14.20;;
29500;SDS011;16450;50.288;10.966;2023-12-04T08:51:29;34.37;;;17.73;;
29500;SDS011;16450;50.288;10.966;2023-12-04T08:54:30;26.67;;;14.50;;
29500;SDS011;16450;50.288;10.966;2023-12-04T08:57:32;28.30;;;14.33;;
29500;SDS011;16450;50.288;10.966;2023-12-04T09:00:34;27.40;;;14.47;;
29500;SDS011;16450;50.288;10.966;2023-12-04T09:03:40;25.67;;;14.30;;
29500;SDS011;16450;50.288;10.966;2023-12-04T09:06:42;27.53;;;14.77;;
29500;SDS011;16450;50.288;10.966;2023-12-04T09:10:04;25.10;;;13.60;;
29500;SDS011;16450;50.288;10.966;2023-12-04T09:13:14;25.10;;;13.37;;
29500;SDS011;16450;50.288;10.966;2023-12-04T09:16:16;26.00;;;14.43;;
29500;SDS011;16450;50.288;10.966;2023-12-04T09:19:18;25.03;;;13.83;;
29500;SDS011;16450;50.288;10.966;2023-12-04T09:22:20;24.50;;;12.87;;
29500;SDS011;16450;50.288;10.966;2023-12-04T09:25:30;26.60;;;13.50;;
29500;SDS011;16450;50.288;10.966;2023-12-04T09:28:32;23.13;;;12.47;;
29500;SDS011;16450;50.288;10.966;2023-12-04T09:31:34;23.60;;;12.37;;
29500;SDS011;16450;50.288;10.966;2023-12-04T09:34:36;21.73;;;12.13;;
29500;SDS011;16450;50.288;10.966;2023-12-04T09:37:38;27.33;;;14.30;;
29500;SDS011;16450;50.288;10.966;2023-12-04T09:40:40;23.40;;;12.43;;
29500;SDS011;16450;50.288;10.966;2023-12-04T09:43:43;21.17;;;11.63;;
29500;SDS011;16450;50.288;10.966;2023-12-04T09:46:45;21.93;;;11.93;;
29500;SDS011;16450;50.288;10.966;2023-12-04T09:49:49;22.40;;;12.50;;
29500;SDS011;16450;50.288;10.966;2023-12-04T09:52:54;19.97;;;10.80;;
29500;SDS011;16450;50.288;10.966;2023-12-04T09:56:00;24.23;;;13.20;;
29500;SDS011;16450;50.288;10.966;2023-12-04T09:59:05;23.00;;;13.70;;
29500;SDS011;16450;50.288;10.966;2023-12-04T10:02:08;30.07;;;15.70;;
29500;SDS011;16450;50.288;10.966;2023-12-04T10:05:11;26.20;;;14.97;;
29500;SDS011;16450;50.288;10.966;2023-12-04T10:08:13;30.10;;;15.17;;
29500;SDS011;16450;50.288;10.966;2023-12-04T10:11:15;28.43;;;15.67;;
29500;SDS011;16450;50.288;10.966;2023-12-04T10:14:17;23.00;;;12.27;;
29500;SDS011;16450;50.288;10.966;2023-12-04T10:17:20;21.87;;;12.10;;
29500;SDS011;16450;50.288;10.966;2023-12-04T10:20:22;22.00;;;12.20;;
29500;SDS011;16450;50.288;10.966;2023-12-04T10:23:39;23.30;;;13.17;;
29500;SDS011;16450;50.288;10.966;2023-12-04T10:26:49;22.67;;;12.47;;
29500;SDS011;16450;50.288;10.966;2023-12-04T10:29:54;38.17;;;18.13;;
29500;SDS011;16450;50.288;10.966;2023-12-04T10:32:59;25.13;;;13.10;;
29500;SDS011;16450;50.288;10.966;2023-12-04T10:36:03;21.53;;;11.53;;
29500;SDS011;16450;50.288;10.966;2023-12-04T10:39:05;20.30;;;11.10;;
29500;SDS011;16450;50.288;10.966;2023-12-04T10:42:07;19.03;;;9.90;;
29500;SDS011;16450;50.288;10.966;2023-12-04T10:45:09;20.57;;;10.27;;
29500;SDS011;16450;50.288;10.966;2023-12-04T10:48:12;19.50;;;9.97;;
29500;SDS011;16450;50.288;10.966;2023-12-04T10:51:15;15.57;;;8.90;;
29500;SDS011;16450;50.288;10.966;2023-12-04T10:54:18;16.83;;;9.43;;
29500;SDS011;16450;50.288;10.966;2023-12-04T10:57:31;17.30;;;10.00;;
29500;SDS011;16450;50.288;10.966;2023-12-04T11:00:44;16.93;;;9.20;;
29500;SDS011;16450;50.288;10.966;2023-12-04T11:03:48;16.30;;;8.90;;
29500;SDS011;16450;50.288;10.966;2023-12-04T11:06:54;16.53;;;9.20;;
29500;SDS011;16450;50.288;10.966;2023-12-04T11:09:57;15.87;;;8.57;;
29500;SDS011;16450;50.288;10.966;2023-12-04T11:13:10;16.20;;;8.53;;
29500;SDS011;16450;50.288;10.966;2023-12-04T11:16:20;15.67;;;8.57;;
29500;SDS011;16450;50.288;10.966;2023-12-04T11:22:47;15.07;;;8.20;;
29500;SDS011;16450;50.288;10.966;2023-12-04T11:25:51;14.50;;;8.00;;
29500;SDS011;16450;50.288;10.966;2023-12-04T11:28:55;13.03;;;7.60;;
29500;SDS011;16450;50.288;10.966;2023-12-04T11:31:57;15.23;;;8.07;;
29500;SDS011;16450;50.288;10.966;2023-12-04T11:34:59;15.67;;;8.57;;
29500;SDS011;16450;50.288;10.966;2023-12-04T11:38:04;13.93;;;8.30;;
29500;SDS011;16450;50.288;10.966;2023-12-04T11:41:15;15.60;;;7.93;;
29500;SDS011;16450;50.288;10.966;2023-12-04T11:44:20;15.67;;;7.87;;
29500;SDS011;16450;50.288;10.966;2023-12-04T11:47:24;16.27;;;9.13;;
29500;SDS011;16450;50.288;10.966;2023-12-04T11:50:26;16.70;;;10.23;;
29500;SDS011;16450;50.288;10.966;2023-12-04T11:53:28;14.17;;;7.97;;
29500;SDS011;16450;50.288;10.966;2023-12-04T11:56:30;14.57;;;8.40;;
29500;SDS011;16450;50.288;10.966;2023-12-04T11:59:34;13.37;;;7.83;;
29500;SDS011;16450;50.288;10.966;2023-12-04T12:02:39;15.23;;;7.80;;
29500;SDS011;16450;50.288;10.966;2023-12-04T12:06:08;15.53;;;8.57;;
29500;SDS011;16450;50.288;10.966;2023-12-04T12:09:11;13.73;;;7.50;;
29500;SDS011;16450;50.288;10.966;2023-12-04T12:12:13;15.20;;;8.10;;
29500;SDS011;16450;50.288;10.966;2023-12-04T12:15:16;16.60;;;9.10;;
29500;SDS011;16450;50.288;10.966;2023-12-04T12:18:18;14.50;;;8.53;;
29500;SDS011;16450;50.288;10.966;2023-12-04T12:21:22;16.00;;;8.67;;
29500;SDS011;16450;50.288;10.966;2023-12-04T12:24:25;14.13;;;7.90;;
29500;SDS011;16450;50.288;10.966;2023-12-04T12:27:27;13.63;;;7.70;;
29500;SDS011;16450;50.288;10.966;2023-12-04T12:30:32;16.90;;;8.33;;
29500;SDS011;16450;50.288;10.966;2023-12-04T12:33:33;12.97;;;7.43;;
29500;SDS011;16450;50.288;10.966;2023-12-04T12:36:36;13.37;;;7.70;;
29500;SDS011;16450;50.288;10.966;2023-12-04T12:39:37;15.80;;;7.93;;
29500;SDS011;16450;50.288;10.966;2023-12-04T12:42:41;14.77;;;7.20;;
29500;SDS011;16450;50.288;10.966;2023-12-04T12:45:44;12.57;;;7.20;;
29500;SDS011;16450;50.288;10.966;2023-12-04T12:48:51;14.50;;;7.60;;
29500;SDS011;16450;50.288;10.966;2023-12-04T12:51:54;12.83;;;7.13;;
29500;SDS011;16450;50.288;10.966;2023-12-04T12:54:57;13.53;;;7.63;;
29500;SDS011;16450;50.288;10.966;2023-12-04T12:57:59;13.30;;;7.03;;
29500;SDS011;16450;50.288;10.966;2023-12-04T13:01:01;14.77;;;8.43;;
29500;SDS011;16450;50.288;10.966;2023-12-04T13:04:03;14.17;;;7.40;;
29500;SDS011;16450;50.288;10.966;2023-12-04T13:07:05;14.90;;;6.67;;
29500;SDS011;16450;50.288;10.966;2023-12-04T13:10:08;14.33;;;7.60;;
29500;SDS011;16450;50.288;10.966;2023-12-04T13:13:10;13.43;;;7.83;;
29500;SDS011;16450;50.288;10.966;2023-12-04T13:16:16;12.93;;;7.70;;
29500;SDS011;16450;50.288;10.966;2023-12-04T13:19:18;14.00;;;7.67;;
29500;SDS011;16450;50.288;10.966;2023-12-04T13:22:19;14.40;;;7.67;;
29500;SDS011;16450;50.288;10.966;2023-12-04T13:25:21;13.13;;;8.13;;
29500;SDS011;16450;50.288;10.966;2023-12-04T13:28:28;14.93;;;8.37;;
29500;SDS011;16450;50.288;10.966;2023-12-04T13:31:40;15.47;;;8.47;;
29500;SDS011;16450;50.288;10.966;2023-12-04T13:34:42;16.77;;;8.97;;
29500;SDS011;16450;50.288;10.966;2023-12-04T13:37:44;15.63;;;9.13;;
29500;SDS011;16450;50.288;10.966;2023-12-04T13:40:46;13.53;;;7.17;;
29500;SDS011;16450;50.288;10.966;2023-12-04T13:44:00;14.00;;;7.57;;
29500;SDS011;16450;50.288;10.966;2023-12-04T13:47:04;13.63;;;7.33;;
29500;SDS011;16450;50.288;10.966;2023-12-04T13:50:06;12.40;;;6.93;;
29500;SDS011;16450;50.288;10.966;2023-12-04T13:53:12;13.43;;;7.37;;
29500;SDS011;16450;50.288;10.966;2023-12-04T13:56:16;13.97;;;7.90;;
29500;SDS011;16450;50.288;10.966;2023-12-04T13:59:37;14.83;;;7.60;;
29500;SDS011;16450;50.288;10.966;2023-12-04T14:02:40;15.73;;;7.47;;
29500;SDS011;16450;50.288;10.966;2023-12-04T14:05:42;14.60;;;7.63;;
29500;SDS011;16450;50.288;10.966;2023-12-04T14:08:44;15.37;;;7.47;;
29500;SDS011;16450;50.288;10.966;2023-12-04T14:11:47;15.60;;;7.87;;
29500;SDS011;16450;50.288;10.966;2023-12-04T14:14:49;13.77;;;7.30;;
29500;SDS011;16450;50.288;10.966;2023-12-04T14:17:51;14.20;;;7.53;;
29500;SDS011;16450;50.288;10.966;2023-12-04T14:20:54;14.50;;;7.57;;
29500;SDS011;16450;50.288;10.966;2023-12-04T14:23:56;16.17;;;7.50;;
29500;SDS011;16450;50.288;10.966;2023-12-04T14:26:58;15.20;;;7.33;;
29500;SDS011;16450;50.288;10.966;2023-12-04T14:29:59;15.23;;;7.67;;
29500;SDS011;16450;50.288;10.966;2023-12-04T14:33:03;13.03;;;7.17;;
29500;SDS011;16450;50.288;10.966;2023-12-04T14:36:05;18.37;;;7.73;;
29500;SDS011;16450;50.288;10.966;2023-12-04T14:39:07;13.90;;;7.43;;
29500;SDS011;16450;50.288;10.966;2023-12-04T14:42:12;13.77;;;7.13;;
29500;SDS011;16450;50.288;10.966;2023-12-04T14:45:14;15.40;;;7.27;;
29500;SDS011;16450;50.288;10.966;2023-12-04T14:48:17;12.97;;;6.90;;
29500;SDS011;16450;50.288;10.966;2023-12-04T14:51:19;15.27;;;7.83;;
29500;SDS011;16450;50.288;10.966;2023-12-04T14:54:21;13.73;;;7.27;;
29500;SDS011;16450;50.288;10.966;2023-12-04T14:57:33;14.17;;;6.93;;
29500;SDS011;16450;50.288;10.966;2023-12-04T15:00:41;24.10;;;12.30;;
29500;SDS011;16450;50.288;10.966;2023-12-04T15:03:51;18.37;;;8.90;;
29500;SDS011;16450;50.288;10.966;2023-12-04T15:07:02;15.83;;;8.17;;
29500;SDS011;16450;50.288;10.966;2023-12-04T15:10:24;16.00;;;8.17;;
29500;SDS011;16450;50.288;10.966;2023-12-04T15:13:45;27.83;;;14.50;;
29500;SDS011;16450;50.288;10.966;2023-12-04T15:17:02;20.63;;;9.27;;
29500;SDS011;16450;50.288;10.966;2023-12-04T15:20:19;14.63;;;7.30;;
29500;SDS011;16450;50.288;10.966;2023-12-04T15:23:34;26.33;;;13.67;;
29500;SDS011;16450;50.288;10.966;2023-12-04T15:26:36;15.43;;;8.30;;
29500;SDS011;16450;50.288;10.966;2023-12-04T15:29:39;37.13;;;17.03;;
29500;SDS011;16450;50.288;10.966;2023-12-04T15:32:42;35.43;;;16.50;;
29500;SDS011;16450;50.288;10.966;2023-12-04T15:35:44;23.60;;;10.53;;
29500;SDS011;16450;50.288;10.966;2023-12-04T15:38:46;20.40;;;9.83;;
29500;SDS011;16450;50.288;10.966;2023-12-04T15:41:48;28.97;;;13.27;;
29500;SDS011;16450;50.288;10.966;2023-12-04T15:44:50;18.53;;;8.47;;
29500;SDS011;16450;50.288;10.966;2023-12-04T15:47:52;20.73;;;10.87;;
29500;SDS011;16450;50.288;10.966;2023-12-04T15:50:54;43.57;;;17.90;;
29500;SDS011;16450;50.288;10.966;2023-12-04T15:53:56;18.87;;;9.60;;
29500;SDS011;16450;50.288;10.966;2023-12-04T15:56:59;26.73;;;11.27;;
29500;SDS011;16450;50.288;10.966;2023-12-04T16:00:05;21.50;;;10.53;;
29500;SDS011;16450;50.288;10.966;2023-12-04T16:03:08;17.17;;;8.40;;
29500;SDS011;16450;50.288;10.966;2023-12-04T16:06:10;14.57;;;8.07;;
29500;SDS011;16450;50.288;10.966;2023-12-04T16:09:12;23.17;;;11.40;;
29500;SDS011;16450;50.288;10.966;2023-12-04T16:12:15;16.97;;;8.50;;
29500;SDS011;16450;50.288;10.966;2023-12-04T16:15:17;23.43;;;11.07;;
29500;SDS011;16450;50.288;10.966;2023-12-04T16:18:21;14.20;;;7.87;;
29500;SDS011;16450;50.288;10.966;2023-12-04T16:21:22;19.53;;;9.57;;
29500;SDS011;16450;50.288;10.966;2023-12-04T16:24:25;28.23;;;12.43;;
29500;SDS011;16450;50.288;10.966;2023-12-04T16:27:28;17.97;;;8.63;;
29500;SDS011;16450;50.288;10.966;2023-12-04T16:30:29;17.30;;;9.13;;
29500;SDS011;16450;50.288;10.966;2023-12-04T16:33:31;16.03;;;8.10;;
29500;SDS011;16450;50.288;10.966;2023-12-04T16:36:33;18.23;;;8.03;;
29500;SDS011;16450;50.288;10.966;2023-12-04T16:39:35;18.23;;;8.00;;
29500;SDS011;16450;50.288;10.966;2023-12-04T16:42:38;14.27;;;7.60;;
29500;SDS011;16450;50.288;10.966;2023-12-04T16:45:40;19.50;;;10.57;;
29500;SDS011;16450;50.288;10.966;2023-12-04T16:48:42;17.63;;;8.77;;
29500;SDS011;16450;50.288;10.966;2023-12-04T16:51:45;31.00;;;14.57;;
29500;SDS011;16450;50.288;10.966;2023-12-04T16:54:47;19.27;;;9.07;;
29500;SDS011;16450;50.288;10.966;2023-12-04T16:57:52;13.97;;;6.93;;
29500;SDS011;16450;50.288;10.966;2023-12-04T17:01:00;22.53;;;10.63;;
29500;SDS011;16450;50.288;10.966;2023-12-04T17:04:03;23.37;;;12.63;;
29500;SDS011;16450;50.288;10.966;2023-12-04T17:07:05;20.97;;;10.10;;
29500;SDS011;16450;50.288;10.966;2023-12-04T17:10:07;16.50;;;8.23;;
29500;SDS011;16450;50.288;10.966;2023-12-04T17:13:11;18.80;;;8.57;;
29500;SDS011;16450;50.288;10.966;2023-12-04T17:16:13;18.90;;;9.00;;
29500;SDS011;16450;50.288;10.966;2023-12-04T17:19:15;13.80;;;6.77;;
29500;SDS011;16450;50.288;10.966;2023-12-04T17:22:17;14.33;;;6.93;;
29500;SDS011;16450;50.288;10.966;2023-12-04T17:25:19;14.67;;;7.07;;
29500;SDS011;16450;50.288;10.966;2023-12-04T17:28:22;18.17;;;8.53;;
29500;SDS011;16450;50.288;10.966;2023-12-04T17:31:24;28.13;;;12.03;;
29500;SDS011;16450;50.288;10.966;2023-12-04T17:34:25;15.43;;;7.63;;
29500;SDS011;16450;50.288;10.966;2023-12-04T17:37:27;14.53;;;7.63;;
29500;SDS011;16450;50.288;10.966;2023-12-04T17:40:30;17.57;;;7.70;;
29500;SDS011;16450;50.288;10.966;2023-12-04T17:43:32;16.33;;;7.83;;
29500;SDS011;16450;50.288;10.966;2023-12-04T17:46:34;17.70;;;9.93;;